createdAt,value
2022-10-20T00:00:14.687Z,1018.93
2022-10-20T00:01:13.545Z,1018.93
2022-10-20T00:02:13.663Z,1018.92
2022-10-20T00:03:13.476Z,1018.92
2022-10-20T00:04:13.460Z,1018.90
2022-10-20T00:05:13.566Z,1018.88
2022-10-20T00:06:13.640Z,1018.86
2022-10-20T00:07:14.136Z,1018.85
2022-10-20T00:08:13.358Z,1018.86
2022-10-20T00:09:13.585Z,1018.87
2022-10-20T00:10:13.541Z,1018.79
2022-10-20T00:11:13.478Z,1018.81
2022-10-20T00:12:13.659Z,1018.85
2022-10-20T00:13:13.843Z,1018.85
2022-10-20T00:14:13.834Z,1018.88
2022-10-20T00:15:13.680Z,1018.92
2022-10-20T00:16:13.980Z,1018.93
2022-10-20T00:17:12.827Z,1018.97
2022-10-20T00:18:13.702Z,1018.92
2022-10-20T00:19:13.533Z,1018.93
2022-10-20T00:21:13.987Z,1018.87
2022-10-20T00:22:13.073Z,1018.84
2022-10-20T00:23:13.014Z,1018.81
2022-10-20T00:24:12.923Z,1018.75
2022-10-20T00:25:13.039Z,1018.77
2022-10-20T00:26:13.103Z,1018.77
2022-10-20T00:27:13.146Z,1018.74
2022-10-20T00:28:13.069Z,1018.73
2022-10-20T00:29:13.013Z,1018.73
2022-10-20T00:30:13.023Z,1018.71
2022-10-20T00:31:12.955Z,1018.68
2022-10-20T00:32:12.986Z,1018.67
2022-10-20T00:33:13.511Z,1018.67
2022-10-20T00:34:13.435Z,1018.67
2022-10-20T00:35:13.537Z,1018.65
2022-10-20T00:36:13.398Z,1018.60
2022-10-20T00:37:13.706Z,1018.62
2022-10-20T00:38:13.979Z,1018.56
2022-10-20T00:39:12.964Z,1018.51
2022-10-20T00:40:12.956Z,1018.49
2022-10-20T00:41:12.997Z,1018.45
2022-10-20T00:42:13.530Z,1018.49
2022-10-20T00:43:13.926Z,1018.45
2022-10-20T00:44:12.815Z,1018.50
2022-10-20T00:45:13.916Z,1018.43
2022-10-20T00:46:12.934Z,1018.42
2022-10-20T00:47:12.789Z,1018.40
2022-10-20T00:48:13.796Z,1018.37
2022-10-20T00:49:14.107Z,1018.36
2022-10-20T00:50:13.000Z,1018.36
2022-10-20T00:51:12.835Z,1018.37
2022-10-20T00:52:13.691Z,1018.33
2022-10-20T00:53:13.646Z,1018.30
2022-10-20T00:54:13.787Z,1018.32
2022-10-20T00:55:14.023Z,1018.26
2022-10-20T00:56:13.357Z,1018.21
2022-10-20T00:57:13.270Z,1018.17
2022-10-20T00:58:13.157Z,1018.14
2022-10-20T00:59:13.082Z,1018.10
2022-10-20T01:00:13.001Z,1018.11
2022-10-20T01:01:13.088Z,1018.06
2022-10-20T01:02:13.396Z,1018.06
2022-10-20T01:03:13.307Z,1018.05
2022-10-20T01:04:13.532Z,1018.08
2022-10-20T01:05:13.578Z,1018.00
2022-10-20T01:06:13.619Z,1018.00
2022-10-20T01:07:13.526Z,1017.97
2022-10-20T01:08:13.800Z,1017.98
2022-10-20T01:09:14.058Z,1017.95
2022-10-20T01:10:13.054Z,1017.97
2022-10-20T01:11:13.318Z,1017.94
2022-10-20T01:12:13.457Z,1017.94
2022-10-20T01:13:13.358Z,1017.95
2022-10-20T01:14:13.291Z,1017.94
2022-10-20T01:15:13.408Z,1017.87
2022-10-20T01:16:13.750Z,1017.88
2022-10-20T01:17:13.863Z,1017.87
2022-10-20T01:18:13.677Z,1017.87
2022-10-20T01:19:13.590Z,1017.87
2022-10-20T01:20:13.427Z,1017.89
2022-10-20T01:21:13.341Z,1017.86
2022-10-20T01:22:13.339Z,1017.84
2022-10-20T01:23:13.176Z,1017.87
2022-10-20T01:24:13.479Z,1017.89
2022-10-20T01:25:13.633Z,1017.92
2022-10-20T01:26:13.702Z,1017.92
2022-10-20T01:27:13.726Z,1017.98
2022-10-20T01:28:13.668Z,1017.95
2022-10-20T01:29:14.020Z,1017.90
2022-10-20T01:30:13.097Z,1017.87
2022-10-20T01:31:13.164Z,1017.81
2022-10-20T01:32:13.524Z,1017.79
2022-10-20T01:33:13.575Z,1017.78
2022-10-20T01:34:13.555Z,1017.67
2022-10-20T01:35:13.564Z,1017.64
2022-10-20T01:36:18.630Z,1017.66
2022-10-20T01:37:23.372Z,1017.65
2022-10-20T01:38:13.495Z,1017.63
2022-10-20T01:39:13.421Z,1017.61
2022-10-20T01:40:13.257Z,1017.59
2022-10-20T01:41:13.224Z,1017.57
2022-10-20T01:42:13.650Z,1017.49
2022-10-20T01:43:13.758Z,1017.45
2022-10-20T01:44:14.758Z,1017.41
2022-10-20T01:45:14.376Z,1017.37
2022-10-20T01:46:13.608Z,1017.29
2022-10-20T01:47:13.511Z,1017.34
2022-10-20T01:48:13.736Z,1017.27
2022-10-20T01:49:13.654Z,1017.30
2022-10-20T01:50:13.913Z,1017.30
2022-10-20T01:51:12.883Z,1017.30
2022-10-20T01:52:12.802Z,1017.30
2022-10-20T01:53:14.068Z,1017.27
2022-10-20T01:54:12.982Z,1017.32
2022-10-20T01:55:12.914Z,1017.32
2022-10-20T01:56:12.851Z,1017.30
2022-10-20T01:57:13.938Z,1017.30
2022-10-20T01:58:12.817Z,1017.29
2022-10-20T01:59:13.914Z,1017.30
2022-10-20T02:00:12.833Z,1017.30
2022-10-20T02:01:13.828Z,1017.26
2022-10-20T02:02:14.034Z,1017.26
2022-10-20T02:03:12.908Z,1017.23
2022-10-20T02:04:12.949Z,1017.22
2022-10-20T02:05:13.127Z,1017.16
2022-10-20T02:06:13.165Z,1017.15
2022-10-20T02:07:13.375Z,1017.17
2022-10-20T02:08:13.408Z,1017.14
2022-10-20T02:09:13.311Z,1017.09
2022-10-20T02:10:13.388Z,1017.12
2022-10-20T02:11:13.533Z,1017.04
2022-10-20T02:12:13.585Z,1017.04
2022-10-20T02:13:13.596Z,1017.01
2022-10-20T02:14:13.648Z,1017.02
2022-10-20T02:15:13.581Z,1017.03
2022-10-20T02:16:13.552Z,1016.97
2022-10-20T02:17:13.491Z,1016.97
2022-10-20T02:18:13.645Z,1016.96
2022-10-20T02:19:13.799Z,1016.94
2022-10-20T02:20:13.886Z,1016.95
2022-10-20T02:21:12.891Z,1016.94
2022-10-20T02:22:12.953Z,1016.93
2022-10-20T02:23:13.157Z,1016.93
2022-10-20T02:24:13.102Z,1016.89
2022-10-20T02:25:13.066Z,1016.88
2022-10-20T02:26:12.881Z,1016.86
2022-10-20T02:27:13.888Z,1016.83
2022-10-20T02:28:14.163Z,1016.86
2022-10-20T02:29:13.280Z,1016.85
2022-10-20T02:30:13.525Z,1016.81
2022-10-20T02:31:13.947Z,1016.79
2022-10-20T02:32:13.060Z,1016.74
2022-10-20T02:33:14.140Z,1016.75
2022-10-20T02:34:13.493Z,1016.74
2022-10-20T02:35:13.706Z,1016.79
2022-10-20T02:36:13.787Z,1016.76
2022-10-20T02:37:14.277Z,1016.78
2022-10-20T02:38:13.343Z,1016.82
2022-10-20T02:39:13.180Z,1016.79
2022-10-20T02:40:13.154Z,1016.82
2022-10-20T02:41:13.702Z,1016.76
2022-10-20T02:42:14.328Z,1016.74
2022-10-20T02:43:13.230Z,1016.73
2022-10-20T02:44:13.287Z,1016.73
2022-10-20T02:45:13.250Z,1016.69
2022-10-20T02:46:13.321Z,1016.64
2022-10-20T02:47:13.288Z,1016.59
2022-10-20T02:48:13.268Z,1016.55
2022-10-20T02:49:13.309Z,1016.51
2022-10-20T02:50:13.263Z,1016.46
2022-10-20T02:51:13.228Z,1016.48
2022-10-20T02:52:13.259Z,1016.45
2022-10-20T02:53:13.270Z,1016.49
2022-10-20T02:54:13.146Z,1016.49
2022-10-20T02:55:13.051Z,1016.51
2022-10-20T02:56:13.480Z,1016.50
2022-10-20T02:57:13.723Z,1016.51
2022-10-20T02:58:13.757Z,1016.48
2022-10-20T02:59:13.981Z,1016.49
2022-10-20T03:00:12.921Z,1016.50
2022-10-20T03:01:13.398Z,1016.47
2022-10-20T03:02:13.737Z,1016.44
2022-10-20T03:03:13.890Z,1016.42
2022-10-20T03:04:14.214Z,1016.42
2022-10-20T03:05:13.089Z,1016.46
2022-10-20T03:06:13.001Z,1016.42
2022-10-20T03:07:13.021Z,1016.41
2022-10-20T03:08:13.002Z,1016.40
2022-10-20T03:09:12.943Z,1016.34
2022-10-20T03:10:12.856Z,1016.35
2022-10-20T03:11:13.688Z,1016.34
2022-10-20T03:12:13.924Z,1016.35
2022-10-20T03:13:12.867Z,1016.33
2022-10-20T03:14:13.887Z,1016.33
2022-10-20T03:15:14.081Z,1016.33
2022-10-20T03:16:13.270Z,1016.35
2022-10-20T03:17:13.200Z,1016.31
2022-10-20T03:18:13.040Z,1016.35
2022-10-20T03:19:13.222Z,1016.29
2022-10-20T03:20:13.205Z,1016.28
2022-10-20T03:21:13.538Z,1016.22
2022-10-20T03:22:13.499Z,1016.23
2022-10-20T03:23:15.214Z,1016.17
2022-10-20T03:24:14.176Z,1016.20
2022-10-20T03:25:13.060Z,1016.16
2022-10-20T03:26:12.918Z,1016.18
2022-10-20T03:27:12.928Z,1016.17
2022-10-20T03:28:12.830Z,1016.19
2022-10-20T03:29:13.860Z,1016.19
2022-10-20T03:30:14.001Z,1016.17
2022-10-20T03:31:13.087Z,1016.16
2022-10-20T03:32:13.256Z,1016.16
2022-10-20T03:33:13.019Z,1016.18
2022-10-20T03:34:13.090Z,1016.14
2022-10-20T03:35:12.938Z,1016.10
2022-10-20T03:36:12.886Z,1016.14
2022-10-20T03:37:12.805Z,1016.12
2022-10-20T03:38:14.036Z,1016.11
2022-10-20T03:39:12.866Z,1016.16
2022-10-20T03:40:14.026Z,1016.19
2022-10-20T03:41:13.395Z,1016.19
2022-10-20T03:42:13.377Z,1016.18
2022-10-20T03:43:13.350Z,1016.11
2022-10-20T03:44:13.707Z,1016.09
2022-10-20T03:45:16.284Z,1016.04
2022-10-20T03:46:13.721Z,1016.00
2022-10-20T03:47:13.927Z,1016.01
2022-10-20T03:48:12.820Z,1015.99
2022-10-20T03:49:14.103Z,1015.98
2022-10-20T03:50:13.128Z,1015.96
2022-10-20T03:51:13.224Z,1015.95
2022-10-20T03:52:13.201Z,1015.93
2022-10-20T03:53:13.132Z,1015.89
2022-10-20T03:54:13.233Z,1015.93
2022-10-20T03:55:13.326Z,1015.90
2022-10-20T03:56:13.424Z,1015.87
2022-10-20T03:57:45.742Z,1015.90
2022-10-20T03:58:13.729Z,1015.86
2022-10-20T03:59:13.937Z,1015.85
2022-10-20T04:00:12.984Z,1015.81
2022-10-20T04:01:13.023Z,1015.81
2022-10-20T04:02:12.867Z,1015.75
2022-10-20T04:03:14.253Z,1015.75
2022-10-20T04:04:13.273Z,1015.79
2022-10-20T04:05:13.140Z,1015.74
2022-10-20T04:06:13.047Z,1015.68
2022-10-20T04:07:13.097Z,1015.70
2022-10-20T04:08:12.999Z,1015.64
2022-10-20T04:09:13.094Z,1015.68
2022-10-20T04:10:13.070Z,1015.60
2022-10-20T04:11:12.995Z,1015.62
2022-10-20T04:12:13.043Z,1015.62
2022-10-20T04:13:13.079Z,1015.60
2022-10-20T04:14:13.044Z,1015.68
2022-10-20T04:15:12.923Z,1015.67
2022-10-20T04:16:13.021Z,1015.65
2022-10-20T04:17:13.380Z,1015.60
2022-10-20T04:18:13.356Z,1015.60
2022-10-20T04:19:14.312Z,1015.60
2022-10-20T04:20:13.425Z,1015.58
2022-10-20T04:21:13.645Z,1015.58
2022-10-20T04:22:13.666Z,1015.58
2022-10-20T04:23:14.375Z,1015.56
2022-10-20T04:24:13.281Z,1015.57
2022-10-20T04:25:13.379Z,1015.56
2022-10-20T04:26:13.661Z,1015.57
2022-10-20T04:27:14.068Z,1015.53
2022-10-20T04:28:13.341Z,1015.52
2022-10-20T04:29:13.163Z,1015.50
2022-10-20T04:30:13.880Z,1015.46
2022-10-20T04:31:13.730Z,1015.44
2022-10-20T04:32:13.835Z,1015.43
2022-10-20T04:33:13.956Z,1015.43
2022-10-20T04:34:12.913Z,1015.45
2022-10-20T04:35:13.211Z,1015.50
2022-10-20T04:36:13.168Z,1015.54
2022-10-20T04:37:13.222Z,1015.59
2022-10-20T04:38:13.131Z,1015.53
2022-10-20T04:39:13.063Z,1015.47
2022-10-20T04:40:12.941Z,1015.48
2022-10-20T04:41:12.968Z,1015.53
2022-10-20T04:42:12.892Z,1015.46
2022-10-20T04:43:13.828Z,1015.45
2022-10-20T04:44:13.661Z,1015.40
2022-10-20T04:45:13.754Z,1015.46
2022-10-20T04:46:13.625Z,1015.41
2022-10-20T04:47:13.468Z,1015.37
2022-10-20T04:48:13.399Z,1015.31
2022-10-20T04:49:13.309Z,1015.35
2022-10-20T04:50:13.348Z,1015.26
2022-10-20T04:51:13.548Z,1015.23
2022-10-20T04:52:13.599Z,1015.19
2022-10-20T04:53:13.874Z,1015.18
2022-10-20T04:54:12.872Z,1015.15
2022-10-20T04:55:13.057Z,1015.09
2022-10-20T04:56:13.081Z,1015.05
2022-10-20T04:57:13.141Z,1015.05
2022-10-20T04:58:13.212Z,1015.05
2022-10-20T04:59:13.801Z,1015.03
2022-10-20T05:00:13.148Z,1015.10
2022-10-20T05:01:13.187Z,1015.01
2022-10-20T05:02:13.414Z,1014.99
2022-10-20T05:03:13.413Z,1014.97
2022-10-20T05:04:13.681Z,1015.03
2022-10-20T05:05:13.877Z,1014.95
2022-10-20T05:06:13.836Z,1014.99
2022-10-20T05:07:13.841Z,1015.00
2022-10-20T05:08:13.755Z,1015.00
2022-10-20T05:09:13.753Z,1014.99
2022-10-20T05:10:13.711Z,1014.94
2022-10-20T05:11:13.952Z,1014.82
2022-10-20T05:12:18.955Z,1014.81
2022-10-20T05:13:12.867Z,1014.75
2022-10-20T05:14:21.138Z,1014.75
2022-10-20T05:15:13.055Z,1014.72
2022-10-20T05:16:26.984Z,1014.76
2022-10-20T05:17:12.883Z,1014.71
2022-10-20T05:18:13.686Z,1014.72
2022-10-20T05:19:13.583Z,1014.70
2022-10-20T05:20:14.177Z,1014.72
2022-10-20T05:21:13.153Z,1014.72
2022-10-20T05:22:13.522Z,1014.73
2022-10-20T05:23:13.842Z,1014.72
2022-10-20T05:24:16.873Z,1014.71
2022-10-20T05:25:34.884Z,1014.64
2022-10-20T05:26:13.470Z,1014.60
2022-10-20T05:27:13.510Z,1014.55
2022-10-20T05:28:13.542Z,1014.53
2022-10-20T05:29:13.475Z,1014.49
2022-10-20T05:30:13.383Z,1014.48
2022-10-20T05:31:13.563Z,1014.42
2022-10-20T05:32:13.680Z,1014.39
2022-10-20T05:33:13.786Z,1014.42
2022-10-20T05:34:14.109Z,1014.44
2022-10-20T05:35:13.258Z,1014.46
2022-10-20T05:36:15.882Z,1014.46
2022-10-20T05:37:13.026Z,1014.43
2022-10-20T05:38:12.883Z,1014.37
2022-10-20T05:39:14.016Z,1014.37
2022-10-20T05:40:13.338Z,1014.31
2022-10-20T05:41:13.210Z,1014.28
2022-10-20T05:42:13.729Z,1014.30
2022-10-20T05:43:17.236Z,1014.30
2022-10-20T05:44:13.462Z,1014.32
2022-10-20T05:45:13.696Z,1014.37
2022-10-20T05:46:27.683Z,1014.44
2022-10-20T05:47:18.697Z,1014.42
2022-10-20T05:48:13.743Z,1014.43
2022-10-20T05:49:13.871Z,1014.45
2022-10-20T05:50:13.713Z,1014.42
2022-10-20T05:51:15.033Z,1014.40
2022-10-20T05:52:13.734Z,1014.37
2022-10-20T05:53:13.774Z,1014.34
2022-10-20T05:54:13.709Z,1014.32
2022-10-20T05:55:15.034Z,1014.28
2022-10-20T05:56:13.290Z,1014.38
2022-10-20T05:57:13.657Z,1014.36
2022-10-20T05:58:13.718Z,1014.31
2022-10-20T05:59:13.645Z,1014.36
2022-10-20T06:00:13.056Z,1014.36
2022-10-20T06:01:13.246Z,1014.33
2022-10-20T06:02:13.413Z,1014.30
2022-10-20T06:03:16.193Z,1014.24
2022-10-20T06:04:12.966Z,1014.23
2022-10-20T06:05:13.188Z,1014.24
2022-10-20T06:06:13.269Z,1014.25
2022-10-20T06:07:13.519Z,1014.23
2022-10-20T06:08:13.465Z,1014.25
2022-10-20T06:09:13.656Z,1014.20
2022-10-20T06:10:13.626Z,1014.21
2022-10-20T06:11:13.903Z,1014.19
2022-10-20T06:12:12.860Z,1014.18
2022-10-20T06:13:14.152Z,1014.20
2022-10-20T06:14:13.487Z,1014.28
2022-10-20T06:15:13.718Z,1014.27
2022-10-20T06:16:13.823Z,1014.25
2022-10-20T06:17:13.806Z,1014.28
2022-10-20T06:18:14.064Z,1014.26
2022-10-20T06:19:13.213Z,1014.29
2022-10-20T06:20:13.210Z,1014.28
2022-10-20T06:21:13.313Z,1014.28
2022-10-20T06:22:13.248Z,1014.38
2022-10-20T06:23:13.307Z,1014.38
2022-10-20T06:24:13.358Z,1014.40
2022-10-20T06:25:13.283Z,1014.42
2022-10-20T06:26:13.612Z,1014.34
2022-10-20T06:27:13.559Z,1014.37
2022-10-20T06:28:13.488Z,1014.34
2022-10-20T06:29:13.593Z,1014.25
2022-10-20T06:30:13.852Z,1014.23
2022-10-20T06:31:14.249Z,1014.30
2022-10-20T06:33:13.406Z,1014.25
2022-10-20T06:34:13.622Z,1014.35
2022-10-20T06:35:13.963Z,1014.31
2022-10-20T06:36:13.225Z,1014.30
2022-10-20T06:37:13.389Z,1014.34
2022-10-20T06:38:13.704Z,1014.34
2022-10-20T06:39:13.950Z,1014.35
2022-10-20T06:40:12.836Z,1014.30
2022-10-20T06:41:13.683Z,1014.37
2022-10-20T06:42:13.504Z,1014.39
2022-10-20T06:43:13.605Z,1014.40
2022-10-20T06:44:13.704Z,1014.38
2022-10-20T06:45:15.628Z,1014.49
2022-10-20T06:46:13.852Z,1014.48
2022-10-20T06:47:14.117Z,1014.53
2022-10-20T06:48:13.063Z,1014.49
2022-10-20T06:49:13.105Z,1014.53
2022-10-20T06:50:13.185Z,1014.49
2022-10-20T06:51:13.257Z,1014.48
2022-10-20T06:52:13.226Z,1014.44
2022-10-20T06:53:13.173Z,1014.45
2022-10-20T06:54:13.047Z,1014.44
2022-10-20T06:55:12.979Z,1014.45
2022-10-20T06:56:12.968Z,1014.42
2022-10-20T06:57:13.057Z,1014.46
2022-10-20T06:58:13.127Z,1014.41
2022-10-20T06:59:13.139Z,1014.41
2022-10-20T07:00:13.031Z,1014.37
2022-10-20T07:01:13.049Z,1014.36
2022-10-20T07:02:13.121Z,1014.32
2022-10-20T07:03:13.805Z,1014.35
2022-10-20T07:04:13.892Z,1014.32
2022-10-20T07:05:12.865Z,1014.35
2022-10-20T07:06:13.793Z,1014.35
2022-10-20T07:07:13.649Z,1014.29
2022-10-20T07:08:13.867Z,1014.33
2022-10-20T07:09:14.111Z,1014.36
2022-10-20T07:10:14.541Z,1014.33
2022-10-20T07:11:13.404Z,1014.28
2022-10-20T07:12:13.315Z,1014.30
2022-10-20T07:13:13.424Z,1014.29
2022-10-20T07:14:13.797Z,1014.31
2022-10-20T07:15:13.911Z,1014.30
2022-10-20T07:16:13.083Z,1014.38
2022-10-20T07:17:13.410Z,1014.42
2022-10-20T07:18:13.655Z,1014.45
2022-10-20T07:19:13.929Z,1014.39
2022-10-20T07:20:12.853Z,1014.42
2022-10-20T07:21:13.992Z,1014.39
2022-10-20T07:22:13.695Z,1014.43
2022-10-20T07:23:14.301Z,1014.44
2022-10-20T07:24:13.461Z,1014.39
2022-10-20T07:25:13.459Z,1014.45
2022-10-20T07:26:13.798Z,1014.49
2022-10-20T07:27:13.869Z,1014.43
2022-10-20T07:28:14.225Z,1014.42
2022-10-20T07:29:13.573Z,1014.44
2022-10-20T07:30:13.547Z,1014.46
2022-10-20T07:31:13.548Z,1014.39
2022-10-20T07:32:13.471Z,1014.45
2022-10-20T07:33:13.822Z,1014.44
2022-10-20T07:34:24.977Z,1014.35
2022-10-20T07:35:13.018Z,1014.45
2022-10-20T07:36:13.631Z,1014.41
2022-10-20T07:37:13.804Z,1014.38
2022-10-20T07:38:13.699Z,1014.28
2022-10-20T07:39:13.606Z,1014.33
2022-10-20T07:40:13.651Z,1014.34
2022-10-20T07:41:13.519Z,1014.29
2022-10-20T07:42:13.411Z,1014.34
2022-10-20T07:43:13.623Z,1014.37
2022-10-20T07:44:14.170Z,1014.32
2022-10-20T07:45:13.278Z,1014.35
2022-10-20T07:47:13.106Z,1014.35
2022-10-20T07:48:13.600Z,1014.43
2022-10-20T07:49:43.971Z,1014.38
2022-10-20T07:50:13.647Z,1014.43
2022-10-20T07:52:13.674Z,1014.48
2022-10-20T07:53:13.731Z,1014.42
2022-10-20T07:54:13.579Z,1014.45
2022-10-20T07:55:36.637Z,1014.43
2022-10-20T07:56:13.662Z,1014.47
2022-10-20T07:57:13.994Z,1014.44
2022-10-20T07:58:13.123Z,1014.48
2022-10-20T07:59:13.410Z,1014.53
2022-10-20T08:00:13.649Z,1014.52
2022-10-20T08:01:13.921Z,1014.47
2022-10-20T08:02:13.158Z,1014.45
2022-10-20T08:03:13.255Z,1014.44
2022-10-20T08:04:13.158Z,1014.37
2022-10-20T08:05:13.268Z,1014.32
2022-10-20T08:06:13.237Z,1014.39
2022-10-20T08:07:13.618Z,1014.31
2022-10-20T08:08:13.718Z,1014.27
2022-10-20T08:09:13.702Z,1014.22
2022-10-20T08:10:13.741Z,1014.25
2022-10-20T08:11:13.755Z,1014.23
2022-10-20T08:12:14.100Z,1014.22
2022-10-20T08:13:13.166Z,1014.23
2022-10-20T08:14:13.410Z,1014.19
2022-10-20T08:15:17.039Z,1014.17
2022-10-20T08:16:14.236Z,1014.16
2022-10-20T08:17:13.192Z,1014.12
2022-10-20T08:18:13.934Z,1014.16
2022-10-20T08:19:15.262Z,1014.12
2022-10-20T08:20:17.802Z,1014.10
2022-10-20T08:21:14.020Z,1014.04
2022-10-20T08:22:13.213Z,1014.06
2022-10-20T08:23:13.151Z,1013.99
2022-10-20T08:24:13.034Z,1013.99
2022-10-20T08:25:13.090Z,1013.92
2022-10-20T08:26:13.066Z,1013.95
2022-10-20T08:27:13.161Z,1013.88
2022-10-20T08:28:13.268Z,1013.86
2022-10-20T08:29:13.358Z,1013.86
2022-10-20T08:30:23.324Z,1013.89
2022-10-20T08:31:13.657Z,1013.86
2022-10-20T08:32:13.740Z,1013.94
2022-10-20T08:33:13.756Z,1014.05
2022-10-20T08:34:14.174Z,1014.12
2022-10-20T08:35:13.045Z,1014.12
2022-10-20T08:36:13.246Z,1014.13
2022-10-20T08:37:13.548Z,1014.15
2022-10-20T08:38:13.536Z,1014.08
2022-10-20T08:39:13.709Z,1014.01
2022-10-20T08:40:13.649Z,1014.01
2022-10-20T08:41:13.587Z,1013.99
2022-10-20T08:42:13.943Z,1014.02
2022-10-20T08:43:13.436Z,1013.94
2022-10-20T08:44:13.749Z,1013.92
2022-10-20T08:45:14.018Z,1013.86
2022-10-20T08:46:13.076Z,1013.90
2022-10-20T08:47:13.268Z,1013.79
2022-10-20T08:48:13.337Z,1013.84
2022-10-20T08:49:13.265Z,1013.84
2022-10-20T08:50:13.187Z,1013.80
2022-10-20T08:51:13.143Z,1013.83
2022-10-20T08:52:13.157Z,1013.87
2022-10-20T08:53:13.182Z,1013.85
2022-10-20T08:54:13.312Z,1013.84
2022-10-20T08:55:13.411Z,1013.74
2022-10-20T08:56:13.488Z,1013.87
2022-10-20T08:57:13.881Z,1013.87
2022-10-20T08:58:13.846Z,1013.91
2022-10-20T08:59:13.756Z,1013.88
2022-10-20T09:00:13.936Z,1013.95
2022-10-20T09:01:18.333Z,1013.86
2022-10-20T09:02:13.499Z,1013.88
2022-10-20T09:03:13.676Z,1013.88
2022-10-20T09:04:13.961Z,1013.88
2022-10-20T09:05:15.362Z,1013.89
2022-10-20T09:06:13.583Z,1013.95
2022-10-20T09:07:13.983Z,1013.91
2022-10-20T09:08:13.015Z,1013.93
2022-10-20T09:09:13.204Z,1013.90
2022-10-20T09:10:13.615Z,1013.95
2022-10-20T09:11:13.729Z,1013.90
2022-10-20T09:12:14.014Z,1013.97
2022-10-20T09:13:18.505Z,1013.93
2022-10-20T09:15:18.766Z,1013.87
2022-10-20T09:16:22.100Z,1013.89
2022-10-20T09:17:13.898Z,1013.84
2022-10-20T09:18:13.224Z,1013.83
2022-10-20T09:19:13.405Z,1013.79
2022-10-20T09:20:13.479Z,1013.80
2022-10-20T09:21:13.525Z,1013.85
2022-10-20T09:22:13.893Z,1013.85
2022-10-20T09:23:35.274Z,1013.89
2022-10-20T09:24:13.552Z,1013.89
2022-10-20T09:25:14.077Z,1013.91
2022-10-20T09:26:24.778Z,1013.93
2022-10-20T09:27:13.999Z,1013.93
2022-10-20T09:28:13.209Z,1013.87
2022-10-20T09:29:14.484Z,1013.92
2022-10-20T09:30:13.593Z,1013.94
2022-10-20T09:31:13.856Z,1013.93
2022-10-20T09:32:44.572Z,1013.95
2022-10-20T09:33:13.537Z,1013.92
2022-10-20T09:34:13.640Z,1013.99
2022-10-20T09:35:19.767Z,1014.02
2022-10-20T09:36:14.239Z,1014.02
2022-10-20T09:37:13.632Z,1013.97
2022-10-20T09:38:13.725Z,1013.98
2022-10-20T09:39:13.795Z,1013.91
2022-10-20T09:40:14.190Z,1013.91
2022-10-20T09:41:13.325Z,1013.91
2022-10-20T09:42:13.455Z,1013.88
2022-10-20T09:43:13.632Z,1013.85
2022-10-20T09:44:13.699Z,1013.88
2022-10-20T09:45:14.574Z,1013.91
2022-10-20T09:46:13.744Z,1013.87
2022-10-20T09:47:13.843Z,1013.88
2022-10-20T09:48:13.862Z,1013.96
2022-10-20T09:49:14.346Z,1013.92
2022-10-20T09:50:13.726Z,1013.94
2022-10-20T09:52:13.035Z,1013.87
2022-10-20T09:53:23.330Z,1013.76
2022-10-20T09:54:13.466Z,1013.77
2022-10-20T09:55:13.824Z,1013.76
2022-10-20T09:56:19.266Z,1013.80
2022-10-20T09:57:13.514Z,1013.71
2022-10-20T09:58:17.108Z,1013.68
2022-10-20T09:59:13.542Z,1013.66
2022-10-20T10:01:13.298Z,1013.71
2022-10-20T10:02:13.384Z,1013.69
2022-10-20T10:03:13.691Z,1013.63
2022-10-20T10:04:13.723Z,1013.65
2022-10-20T10:05:13.996Z,1013.72
2022-10-20T10:06:13.066Z,1013.73
2022-10-20T10:07:13.049Z,1013.70
2022-10-20T10:08:12.910Z,1013.74
2022-10-20T10:09:13.185Z,1013.77
2022-10-20T10:10:13.263Z,1013.74
2022-10-20T10:11:13.664Z,1013.65
2022-10-20T10:12:13.723Z,1013.63
2022-10-20T10:13:13.724Z,1013.44
2022-10-20T10:14:15.098Z,1013.43
2022-10-20T10:15:13.263Z,1013.47
2022-10-20T10:16:13.428Z,1013.49
2022-10-20T10:17:13.687Z,1013.45
2022-10-20T10:18:13.865Z,1013.45
2022-10-20T10:20:12.833Z,1013.56
2022-10-20T10:21:13.883Z,1013.50
2022-10-20T10:22:12.776Z,1013.44
2022-10-20T10:23:14.064Z,1013.49
2022-10-20T10:24:13.184Z,1013.35
2022-10-20T10:25:18.154Z,1013.38
2022-10-20T10:26:13.035Z,1013.38
2022-10-20T10:27:13.277Z,1013.37
2022-10-20T10:28:13.402Z,1013.34
2022-10-20T10:29:27.300Z,1013.38
2022-10-20T10:30:13.319Z,1013.38
2022-10-20T10:31:13.375Z,1013.41
2022-10-20T10:32:13.327Z,1013.44
2022-10-20T10:33:13.220Z,1013.47
2022-10-20T10:34:13.007Z,1013.48
2022-10-20T10:35:12.908Z,1013.55
2022-10-20T10:36:13.482Z,1013.54
2022-10-20T10:37:13.722Z,1013.59
2022-10-20T10:38:13.868Z,1013.64
2022-10-20T10:39:13.798Z,1013.65
2022-10-20T10:40:13.637Z,1013.66
2022-10-20T10:41:13.549Z,1013.67
2022-10-20T10:42:13.911Z,1013.66
2022-10-20T10:43:13.150Z,1013.71
2022-10-20T10:44:13.539Z,1013.67
2022-10-20T10:45:13.556Z,1013.68
2022-10-20T10:46:13.645Z,1013.69
2022-10-20T10:47:13.869Z,1013.70
2022-10-20T10:48:13.830Z,1013.70
2022-10-20T10:49:13.926Z,1013.68
2022-10-20T10:50:13.262Z,1013.69
2022-10-20T10:51:13.670Z,1013.71
2022-10-20T10:52:14.015Z,1013.79
2022-10-20T10:53:13.451Z,1013.80
2022-10-20T10:54:13.472Z,1013.84
2022-10-20T10:55:21.230Z,1013.81
2022-10-20T10:56:13.845Z,1013.85
2022-10-20T10:57:13.970Z,1013.85
2022-10-20T10:59:13.867Z,1013.78
2022-10-20T11:00:13.858Z,1013.75
2022-10-20T11:01:12.863Z,1013.70
2022-10-20T11:02:12.989Z,1013.68
2022-10-20T11:03:13.518Z,1013.71
2022-10-20T11:04:13.563Z,1013.69
2022-10-20T11:05:13.527Z,1013.64
2022-10-20T11:06:13.441Z,1013.63
2022-10-20T11:07:13.762Z,1013.60
2022-10-20T11:08:13.625Z,1013.58
2022-10-20T11:09:14.061Z,1013.57
2022-10-20T11:10:13.246Z,1013.52
2022-10-20T11:11:13.362Z,1013.54
2022-10-20T11:12:13.391Z,1013.59
2022-10-20T11:13:13.545Z,1013.57
2022-10-20T11:14:13.416Z,1013.55
2022-10-20T11:15:13.594Z,1013.57
2022-10-20T11:16:13.953Z,1013.56
2022-10-20T11:17:13.161Z,1013.56
2022-10-20T11:18:13.324Z,1013.43
2022-10-20T11:19:13.432Z,1013.40
2022-10-20T11:20:14.486Z,1013.38
2022-10-20T11:21:13.740Z,1013.39
2022-10-20T11:22:14.772Z,1013.35
2022-10-20T11:23:13.379Z,1013.33
2022-10-20T11:24:13.400Z,1013.31
2022-10-20T11:25:13.491Z,1013.31
2022-10-20T11:26:13.354Z,1013.29
2022-10-20T11:27:13.393Z,1013.27
2022-10-20T11:28:13.551Z,1013.28
2022-10-20T11:29:13.492Z,1013.30
2022-10-20T11:30:13.381Z,1013.30
2022-10-20T11:31:13.318Z,1013.33
2022-10-20T11:32:13.303Z,1013.31
2022-10-20T11:33:14.538Z,1013.31
2022-10-20T11:34:13.877Z,1013.30
2022-10-20T11:35:13.796Z,1013.29
2022-10-20T11:36:13.868Z,1013.25
2022-10-20T11:37:13.780Z,1013.20
2022-10-20T11:38:14.017Z,1013.16
2022-10-20T11:39:13.292Z,1013.15
2022-10-20T11:40:13.408Z,1013.17
2022-10-20T11:41:13.289Z,1013.11
2022-10-20T11:42:13.214Z,1013.11
2022-10-20T11:43:13.292Z,1013.15
2022-10-20T11:44:13.258Z,1013.17
2022-10-20T11:45:13.091Z,1013.15
2022-10-20T11:46:13.172Z,1013.10
2022-10-20T11:47:13.157Z,1013.08
2022-10-20T11:48:13.485Z,1013.04
2022-10-20T11:49:13.520Z,1013.06
2022-10-20T11:50:13.618Z,1013.07
2022-10-20T11:51:13.532Z,1013.10
2022-10-20T11:52:13.502Z,1013.10
2022-10-20T11:53:13.534Z,1013.14
2022-10-20T11:54:13.583Z,1013.11
2022-10-20T11:55:13.671Z,1013.10
2022-10-20T11:56:13.741Z,1013.13
2022-10-20T11:57:13.934Z,1013.14
2022-10-20T11:58:13.369Z,1013.17
2022-10-20T11:59:14.346Z,1013.19
2022-10-20T12:00:13.227Z,1013.22
2022-10-20T12:01:47.095Z,1013.18
2022-10-20T12:02:13.219Z,1013.15
2022-10-20T12:03:13.337Z,1013.16
2022-10-20T12:04:13.399Z,1013.24
2022-10-20T12:05:13.572Z,1013.27
2022-10-20T12:06:13.512Z,1013.25
2022-10-20T12:07:14.235Z,1013.20
2022-10-20T12:08:28.660Z,1013.22
2022-10-20T12:09:13.340Z,1013.18
2022-10-20T12:10:14.720Z,1013.17
2022-10-20T12:11:14.056Z,1013.24
2022-10-20T12:12:12.953Z,1013.29
2022-10-20T12:13:13.369Z,1013.31
2022-10-20T12:14:13.751Z,1013.31